Terminal Aerodrome Forecast
Issued by NWS

Home | Current Version | Previous Version | Text Only | Print | Product List | Glossary On
Versions: 1 2 3 4 5 6 7 8 9 10 11 12 13 14 15
000
FTUS44 KLZK 261700
TAFHOT
TAF
KHOT 261731Z 2618/2718 30007KT P6SM SCT250
     FM261900 29010G20KT P6SM SKC
     FM270100 31006KT P6SM SKC
     FM271200 01003KT P6SM SKC=

USA.gov is the U.S. government's official web portal to all federal, state and local government web resources and services.